CheckWX is a tool to help pilots better visualize weather data.  It is not intended as a substitute for an official pre-flight weather briefing.

21:07:15 UTC

LEZG TAF
Zaragoza Air Base Airport
Zaragoza, Spain
TAF LEZG 211700Z 2118/2218 27005KT CAVOK TX19/2213Z TN03/2206Z

Feb-21@
18:00 UTC

Feb-21 @ 18:00 UTC

Feb-22@
18:00 UTC

Feb-22 @ 18:00 UTC

TAF LEZG 211700Z 2118/2218 27005KT CAVOK TX19/2213Z TN03/2206Z
Wind
  • 270° at 5 KTS
Cloud Levels
  • No significant clouds